createdAt,value
2022-10-02T00:01:04.763Z,95482.91
2022-10-02T00:03:39.912Z,95470.28
2022-10-02T00:06:13.665Z,95478.19
2022-10-02T00:08:43.428Z,95478.19
2022-10-02T00:11:17.385Z,95485.50
2022-10-02T00:13:49.452Z,95486.09
2022-10-02T00:16:25.930Z,95484.72
2022-10-02T00:18:55.462Z,95482.94
2022-10-02T00:21:36.539Z,95496.38
2022-10-02T00:24:08.810Z,95502.13
2022-10-02T00:26:42.064Z,95502.53
2022-10-02T00:29:27.668Z,95513.03
2022-10-02T00:32:08.024Z,95510.25
2022-10-02T00:34:45.855Z,95507.25
2022-10-02T00:37:22.398Z,95503.97
2022-10-02T00:40:10.708Z,95510.81
2022-10-02T00:42:59.562Z,95498.47
2022-10-02T00:45:50.936Z,95512.69
2022-10-02T00:48:34.890Z,95492.66
2022-10-02T00:51:13.529Z,95502.22
2022-10-02T00:53:50.744Z,95497.25
2022-10-02T00:56:29.916Z,95495.19
2022-10-02T00:59:18.615Z,95511.59
2022-10-02T01:01:50.444Z,95505.84
2022-10-02T01:04:26.644Z,95499.16
2022-10-02T01:06:54.491Z,95507.06
2022-10-02T01:09:22.645Z,95492.25
2022-10-02T01:11:52.457Z,95507.28
2022-10-02T01:14:20.332Z,95513.03
2022-10-02T01:16:49.129Z,95511.03
2022-10-02T01:19:27.166Z,95516.56
2022-10-02T01:22:04.331Z,95506.09
2022-10-02T01:24:38.076Z,95518.94
2022-10-02T01:27:07.238Z,95527.63
2022-10-02T01:29:35.065Z,95520.34
2022-10-02T01:32:03.035Z,95526.88
2022-10-02T01:34:31.547Z,95536.38
2022-10-02T01:36:59.730Z,95537.94
2022-10-02T01:39:28.256Z,95540.94
2022-10-02T01:41:56.387Z,95540.53
2022-10-02T01:44:26.555Z,95539.13
2022-10-02T01:47:02.126Z,95538.34
2022-10-02T01:49:57.157Z,95531.03
2022-10-02T01:52:38.809Z,95520.53
2022-10-02T01:55:23.319Z,95541.72
2022-10-02T01:58:00.262Z,95527.47
2022-10-02T02:00:40.024Z,95555.78
2022-10-02T02:03:16.176Z,95529.25
2022-10-02T02:05:51.459Z,95513.63
2022-10-02T02:08:29.727Z,95524.31
2022-10-02T02:11:11.044Z,95537.16
2022-10-02T02:13:46.605Z,95541.53
2022-10-02T02:16:24.268Z,95557.16
2022-10-02T02:18:59.129Z,95549.44
2022-10-02T02:21:32.214Z,95530.25
2022-10-02T02:24:04.505Z,95530.41
2022-10-02T02:26:36.560Z,95549.03
2022-10-02T02:29:08.395Z,95546.88
2022-10-02T02:31:44.883Z,95533.41
2022-10-02T02:34:17.926Z,95534.59
2022-10-02T02:36:51.366Z,95534.41
2022-10-02T02:39:25.729Z,95541.91
2022-10-02T02:41:59.623Z,95541.94
2022-10-02T02:44:31.922Z,95551.44
2022-10-02T02:47:06.434Z,95539.16
2022-10-02T02:49:44.212Z,95543.53
2022-10-02T02:52:16.645Z,95543.13
2022-10-02T02:54:48.624Z,95529.84
2022-10-02T02:57:21.314Z,95541.53
2022-10-02T02:59:52.839Z,95542.94
2022-10-02T03:02:22.163Z,95542.13
2022-10-02T03:04:50.089Z,95540.94
2022-10-02T03:07:18.648Z,95536.19
2022-10-02T03:09:58.091Z,95543.50
2022-10-02T03:12:36.932Z,95549.06
2022-10-02T03:15:26.387Z,95542.31
2022-10-02T03:18:32.825Z,95541.31
2022-10-02T03:21:09.039Z,95549.25
2022-10-02T03:23:51.032Z,95551.81
2022-10-02T03:26:22.385Z,95539.75
2022-10-02T03:28:56.356Z,95542.91
2022-10-02T03:31:29.019Z,95535.38
2022-10-02T03:34:00.106Z,95539.16
2022-10-02T03:36:28.554Z,95538.16
2022-10-02T03:39:23.578Z,95537.97
2022-10-02T03:41:47.904Z,95555.00
2022-10-02T03:44:15.735Z,95552.03
2022-10-02T03:46:43.574Z,95542.13
2022-10-02T03:49:12.782Z,95541.72
2022-10-02T03:51:40.688Z,95531.03
2022-10-02T03:54:16.666Z,95536.38
2022-10-02T03:56:50.720Z,95528.25
2022-10-02T03:59:28.248Z,95531.66
2022-10-02T04:01:59.221Z,95523.91
2022-10-02T04:04:33.477Z,95523.13
2022-10-02T04:07:04.733Z,95531.44
2022-10-02T04:09:38.719Z,95524.13
2022-10-02T04:12:12.752Z,95529.44
2022-10-02T04:14:47.337Z,95525.50
2022-10-02T04:17:20.021Z,95542.72
2022-10-02T04:19:54.057Z,95529.44
2022-10-02T04:22:32.913Z,95530.84
2022-10-02T04:25:06.584Z,95529.25
2022-10-02T04:27:39.451Z,95530.44
2022-10-02T04:30:10.916Z,95525.47
2022-10-02T04:32:39.198Z,95529.66
2022-10-02T04:35:14.778Z,95520.53
2022-10-02T04:38:02.406Z,95529.63
2022-10-02T04:40:54.893Z,95531.63
2022-10-02T04:43:35.430Z,95522.91
2022-10-02T04:46:20.164Z,95519.53
2022-10-02T04:49:17.409Z,95518.13
2022-10-02T04:52:03.770Z,95524.09
2022-10-02T04:54:44.613Z,95515.75
2022-10-02T04:57:39.061Z,95514.56
2022-10-02T05:00:10.914Z,95516.16
2022-10-02T05:02:57.685Z,95511.78
2022-10-02T05:05:36.466Z,95509.81
2022-10-02T05:08:25.730Z,95519.91
2022-10-02T05:11:06.005Z,95523.09
2022-10-02T05:13:59.058Z,95527.44
2022-10-02T05:16:42.372Z,95524.50
2022-10-02T05:19:28.222Z,95524.28
2022-10-02T05:22:16.277Z,95522.06
2022-10-02T05:24:54.924Z,95535.13
2022-10-02T05:27:41.685Z,95518.31
2022-10-02T05:30:13.182Z,95509.22
2022-10-02T05:33:10.894Z,95539.53
2022-10-02T05:36:08.210Z,95532.44
2022-10-02T05:38:52.308Z,95519.56
2022-10-02T05:41:29.760Z,95515.59
2022-10-02T05:44:05.324Z,95515.56
2022-10-02T05:46:39.038Z,95513.97
2022-10-02T05:49:13.658Z,95493.22
2022-10-02T05:51:45.343Z,95506.88
2022-10-02T05:54:26.422Z,95517.56
2022-10-02T05:57:01.475Z,95507.06
2022-10-02T05:59:37.662Z,95512.44
2022-10-02T06:02:18.854Z,95513.22
2022-10-02T06:04:55.461Z,95523.31
2022-10-02T06:07:25.325Z,95520.75
2022-10-02T06:09:59.251Z,95525.47
2022-10-02T06:12:34.732Z,95511.84
2022-10-02T06:15:06.599Z,95525.69
2022-10-02T06:17:39.380Z,95526.28
2022-10-02T06:20:18.798Z,95530.44
2022-10-02T06:22:51.636Z,95532.63
2022-10-02T06:25:25.405Z,95537.78
2022-10-02T06:27:59.503Z,95528.88
2022-10-02T06:30:30.193Z,95532.44
2022-10-02T06:33:03.374Z,95532.03
2022-10-02T06:35:52.331Z,95535.22
2022-10-02T06:38:36.425Z,95529.63
2022-10-02T06:41:09.952Z,95524.72
2022-10-02T06:43:59.343Z,95527.84
2022-10-02T06:46:34.374Z,95523.09
2022-10-02T06:49:09.743Z,95509.25
2022-10-02T06:51:50.721Z,95521.91
2022-10-02T06:54:34.526Z,95521.50
2022-10-02T06:57:14.824Z,95513.03
2022-10-02T07:00:10.928Z,95517.56
2022-10-02T07:03:19.902Z,95529.22
2022-10-02T07:06:24.757Z,95523.91
2022-10-02T07:09:25.064Z,95524.69
2022-10-02T07:12:04.166Z,95532.22
2022-10-02T07:14:51.070Z,95527.28
2022-10-02T07:17:30.209Z,95520.94
2022-10-02T07:20:15.612Z,95525.91
2022-10-02T07:23:07.739Z,95534.41
2022-10-02T07:26:06.265Z,95533.78
2022-10-02T07:28:42.375Z,95524.09
2022-10-02T07:31:20.331Z,95532.25
2022-10-02T07:34:13.371Z,95541.53
2022-10-02T07:36:50.765Z,95526.09
2022-10-02T07:39:31.406Z,95532.63
2022-10-02T07:42:22.703Z,95547.84
2022-10-02T07:45:12.304Z,95541.88
2022-10-02T07:47:57.670Z,95538.53
2022-10-02T07:50:34.321Z,95541.69
2022-10-02T07:53:10.186Z,95537.31
2022-10-02T07:55:42.331Z,95525.81
2022-10-02T07:58:14.661Z,95540.28
2022-10-02T08:00:47.415Z,95531.94
2022-10-02T08:03:21.010Z,95521.47
2022-10-02T08:05:54.260Z,95514.94
2022-10-02T08:08:26.818Z,95524.00
2022-10-02T08:10:59.921Z,95509.63
2022-10-02T08:13:33.025Z,95526.59
2022-10-02T08:16:03.845Z,95515.66
2022-10-02T08:18:36.169Z,95532.47
2022-10-02T08:21:12.731Z,95526.56
2022-10-02T08:23:45.060Z,95530.34
2022-10-02T08:26:20.096Z,95528.94
2022-10-02T08:28:54.265Z,95514.28
2022-10-02T08:31:24.411Z,95517.78
2022-10-02T08:33:52.308Z,95517.75
2022-10-02T08:36:58.349Z,95512.81
2022-10-02T08:39:53.784Z,95503.69
2022-10-02T08:43:08.480Z,95498.34
2022-10-02T08:46:06.683Z,95488.38
2022-10-02T08:49:15.897Z,95491.78
2022-10-02T08:52:06.556Z,95501.97
2022-10-02T08:54:55.123Z,95495.09
2022-10-02T08:57:52.282Z,95492.94
2022-10-02T09:00:26.153Z,95492.50
2022-10-02T09:03:37.611Z,95479.38
2022-10-02T09:06:39.428Z,95486.00
2022-10-02T09:09:38.000Z,95478.84
2022-10-02T09:12:59.938Z,95468.59
2022-10-02T09:15:44.533Z,95461.81
2022-10-02T09:18:19.133Z,95459.69
2022-10-02T09:21:11.420Z,95458.63
2022-10-02T09:24:12.203Z,95470.88
2022-10-02T09:26:59.049Z,95460.84
2022-10-02T09:29:57.778Z,95453.66
2022-10-02T09:32:57.899Z,95456.38
2022-10-02T09:36:03.587Z,95449.94
2022-10-02T09:39:09.731Z,95439.81
2022-10-02T09:42:22.640Z,95433.88
2022-10-02T09:45:36.385Z,95423.03
2022-10-02T09:48:48.777Z,95421.81
2022-10-02T09:51:41.848Z,95426.97
2022-10-02T09:54:56.562Z,95415.78
2022-10-02T09:57:59.814Z,95409.59
2022-10-02T10:01:08.163Z,95415.47
2022-10-02T10:04:01.873Z,95400.69
2022-10-02T10:06:59.103Z,95409.53
2022-10-02T10:09:58.169Z,95392.09
2022-10-02T10:12:53.501Z,95394.63
2022-10-02T10:16:02.117Z,95400.75
2022-10-02T10:19:11.517Z,95391.44
2022-10-02T10:22:16.358Z,95394.16
2022-10-02T10:25:22.566Z,95404.56
2022-10-02T10:28:19.590Z,95391.06
2022-10-02T10:31:17.568Z,95391.06
2022-10-02T10:34:10.804Z,95381.09
2022-10-02T10:37:13.025Z,95378.06
2022-10-02T10:40:02.847Z,95379.09
2022-10-02T10:43:07.938Z,95379.22
2022-10-02T10:45:57.082Z,95378.78
2022-10-02T10:48:35.875Z,95378.13
2022-10-02T10:51:30.525Z,95379.38
2022-10-02T10:54:22.846Z,95379.00
2022-10-02T10:56:55.936Z,95376.44
2022-10-02T11:00:10.037Z,95384.84
2022-10-02T11:03:00.094Z,95379.06
2022-10-02T11:06:07.668Z,95396.47
2022-10-02T11:09:15.369Z,95382.88
2022-10-02T11:11:59.892Z,95375.38
2022-10-02T11:14:41.251Z,95403.53
2022-10-02T11:17:37.078Z,95378.84
2022-10-02T11:20:20.308Z,95391.84
2022-10-02T11:23:24.893Z,95403.56
2022-10-02T11:26:34.289Z,95372.34
2022-10-02T11:29:43.823Z,95369.31
2022-10-02T11:32:51.652Z,95354.91
2022-10-02T11:35:33.073Z,95344.00
2022-10-02T11:38:24.367Z,95339.78
2022-10-02T11:41:26.075Z,95355.34
2022-10-02T11:44:16.232Z,95357.72
2022-10-02T11:47:20.718Z,95355.44
2022-10-02T11:50:15.700Z,95354.88
2022-10-02T11:53:22.169Z,95344.25
2022-10-02T11:56:14.719Z,95349.53
2022-10-02T11:58:55.599Z,95320.56
2022-10-02T12:01:32.192Z,95339.97
2022-10-02T12:07:48.105Z,95345.31
2022-10-02T12:10:32.375Z,95338.91
2022-10-02T12:13:20.582Z,95330.13
2022-10-02T12:15:57.558Z,95335.59
2022-10-02T12:18:40.210Z,95336.50
2022-10-02T12:21:49.577Z,95336.19
2022-10-02T12:24:48.629Z,95336.44
2022-10-02T12:27:37.067Z,95308.72
2022-10-02T12:30:10.555Z,95310.09
2022-10-02T12:32:58.292Z,95310.59
2022-10-02T12:36:18.088Z,95304.50
2022-10-02T12:38:59.878Z,95291.88
2022-10-02T12:41:52.875Z,95299.72
2022-10-02T12:44:44.890Z,95294.06
2022-10-02T12:47:33.270Z,95304.63
2022-10-02T12:50:16.333Z,95289.09
2022-10-02T12:53:22.734Z,95297.88
2022-10-02T12:56:35.916Z,95300.81
2022-10-02T12:59:12.906Z,95294.56
2022-10-02T13:02:49.251Z,95290.78
2022-10-02T13:05:51.222Z,95293.06
2022-10-02T13:08:51.630Z,95293.16
2022-10-02T13:11:32.913Z,95286.41
2022-10-02T13:14:18.109Z,95294.72
2022-10-02T13:17:09.676Z,95300.81
2022-10-02T13:19:51.092Z,95299.25
2022-10-02T13:22:31.825Z,95303.41
2022-10-02T13:25:23.982Z,95301.50
2022-10-02T13:28:08.336Z,95285.69
2022-10-02T13:30:44.292Z,95277.38
2022-10-02T13:33:35.382Z,95273.31
2022-10-02T13:36:16.481Z,95275.75
2022-10-02T13:39:03.721Z,95283.94
2022-10-02T13:41:52.523Z,95299.56
2022-10-02T13:44:33.331Z,95312.63
2022-10-02T13:47:24.271Z,95331.50
2022-10-02T13:50:16.721Z,95286.19
2022-10-02T13:52:55.444Z,95338.13
2022-10-02T13:55:26.629Z,95325.06
2022-10-02T13:58:07.192Z,95295.19
2022-10-02T14:01:04.453Z,95307.91
2022-10-02T14:03:58.612Z,95260.59
2022-10-02T14:06:33.841Z,95312.53
2022-10-02T14:09:17.722Z,95316.78
2022-10-02T14:12:10.455Z,95308.06
2022-10-02T14:14:55.129Z,95310.44
2022-10-02T14:17:34.540Z,95306.69
2022-10-02T14:20:22.103Z,95307.16
2022-10-02T14:23:14.897Z,95308.13
2022-10-02T14:25:55.637Z,95310.50
2022-10-02T14:29:08.702Z,95305.50
2022-10-02T14:31:53.881Z,95292.13
2022-10-02T14:34:38.051Z,95300.66
2022-10-02T14:37:30.126Z,95300.41
2022-10-02T14:40:09.309Z,95297.06
2022-10-02T14:42:49.245Z,95305.81
2022-10-02T14:45:40.061Z,95327.88
2022-10-02T14:48:24.037Z,95314.63
2022-10-02T14:51:06.652Z,95323.16
2022-10-02T14:54:09.201Z,95294.66
2022-10-02T14:56:54.360Z,95284.41
2022-10-02T14:59:53.628Z,95299.59
2022-10-02T15:02:36.360Z,95291.25
2022-10-02T15:05:21.264Z,95273.81
2022-10-02T15:10:44.446Z,95291.94
2022-10-02T15:13:26.730Z,95317.31
2022-10-02T15:16:20.722Z,95290.03
2022-10-02T15:18:57.291Z,95297.75
2022-10-02T15:21:30.266Z,95281.72
2022-10-02T15:24:00.004Z,95294.53
2022-10-02T15:26:42.278Z,95305.41
2022-10-02T15:29:28.328Z,95315.31
2022-10-02T15:32:37.105Z,95328.81
2022-10-02T15:35:20.171Z,95313.34
2022-10-02T15:37:56.790Z,95280.88
2022-10-02T15:40:33.917Z,95315.19
2022-10-02T15:43:27.507Z,95329.22
2022-10-02T15:46:07.288Z,95329.41
2022-10-02T15:48:59.591Z,95334.75
2022-10-02T15:51:43.787Z,95332.38
2022-10-02T15:54:22.640Z,95343.28
2022-10-02T15:57:08.627Z,95351.56
2022-10-02T15:59:55.517Z,95355.94
2022-10-02T16:02:44.636Z,95363.84
2022-10-02T16:05:24.844Z,95381.06
2022-10-02T16:08:16.138Z,95377.50
2022-10-02T16:11:00.329Z,95380.25
2022-10-02T16:13:47.335Z,95370.75
2022-10-02T16:16:28.432Z,95361.28
2022-10-02T16:19:09.014Z,95374.13
2022-10-02T16:21:54.659Z,95369.19
2022-10-02T16:24:42.996Z,95378.31
2022-10-02T16:27:23.048Z,95388.41
2022-10-02T16:30:08.962Z,95368.81
2022-10-02T16:32:49.941Z,95378.69
2022-10-02T16:35:46.221Z,95381.47
2022-10-02T16:38:20.583Z,95376.72
2022-10-02T16:40:57.346Z,95386.41
2022-10-02T16:43:44.775Z,95387.59
2022-10-02T16:46:17.568Z,95378.69
2022-10-02T16:48:54.613Z,95379.88
2022-10-02T16:51:40.833Z,95379.47
2022-10-02T16:54:22.279Z,95375.94
2022-10-02T16:56:56.628Z,95383.06
2022-10-02T16:59:28.374Z,95385.59
2022-10-02T17:02:17.466Z,95372.56
2022-10-02T17:05:03.118Z,95393.53
2022-10-02T17:07:42.398Z,95394.47
2022-10-02T17:10:23.547Z,95387.03
2022-10-02T17:12:58.883Z,95383.81
2022-10-02T17:15:35.272Z,95383.03
2022-10-02T17:18:23.464Z,95405.78
2022-10-02T17:20:54.907Z,95406.78
2022-10-02T17:23:29.366Z,95409.94
2022-10-02T17:26:05.651Z,95422.75
2022-10-02T17:28:42.476Z,95420.81
2022-10-02T17:31:34.672Z,95432.88
2022-10-02T17:34:19.895Z,95441.72
2022-10-02T17:36:54.866Z,95444.88
2022-10-02T17:39:44.134Z,95437.38
2022-10-02T17:42:23.965Z,95429.69
2022-10-02T17:45:02.478Z,95458.19
2022-10-02T17:47:44.665Z,95468.41
2022-10-02T17:50:27.558Z,95472.94
2022-10-02T17:53:22.437Z,95479.25
2022-10-02T17:56:29.314Z,95476.13
2022-10-02T17:59:27.296Z,95478.66
2022-10-02T18:02:08.046Z,95483.00
2022-10-02T18:04:46.086Z,95491.31
2022-10-02T18:07:30.242Z,95502.97
2022-10-02T18:10:09.824Z,95502.56
2022-10-02T18:13:06.929Z,95504.16
2022-10-02T18:15:52.579Z,95509.66
2022-10-02T18:18:32.443Z,95511.59
2022-10-02T18:21:29.471Z,95516.97
2022-10-02T18:24:12.698Z,95509.09
2022-10-02T18:26:55.544Z,95524.63
2022-10-02T18:29:37.069Z,95515.41
2022-10-02T18:32:42.138Z,95498.63
2022-10-02T18:35:23.865Z,95483.53
2022-10-02T18:37:59.785Z,95501.72
2022-10-02T18:40:30.511Z,95483.38
2022-10-02T18:43:39.186Z,95486.53
2022-10-02T18:46:19.698Z,95493.88
2022-10-02T18:49:08.478Z,95501.91
2022-10-02T18:52:16.783Z,95483.94
2022-10-02T18:55:03.074Z,95482.53
2022-10-02T18:57:52.653Z,95488.84
2022-10-02T19:00:23.426Z,95502.72
2022-10-02T19:03:20.673Z,95497.53
2022-10-02T19:05:52.844Z,95500.75
2022-10-02T19:08:27.509Z,95487.50
2022-10-02T19:10:55.481Z,95499.00
2022-10-02T19:13:27.267Z,95511.25
2022-10-02T19:15:58.377Z,95510.25
2022-10-02T19:18:28.088Z,95517.00
2022-10-02T19:21:08.259Z,95523.06
2022-10-02T19:23:40.157Z,95522.69
2022-10-02T19:26:18.853Z,95534.16
2022-10-02T19:28:50.304Z,95533.72
2022-10-02T19:31:22.678Z,95542.22
2022-10-02T19:33:55.066Z,95544.59
2022-10-02T19:36:28.177Z,95542.22
2022-10-02T19:39:01.281Z,95545.38
2022-10-02T19:41:35.374Z,95540.84
2022-10-02T19:44:07.168Z,95552.28
2022-10-02T19:46:39.032Z,95555.41
2022-10-02T19:49:08.636Z,95556.94
2022-10-02T19:51:45.612Z,95561.91
2022-10-02T19:54:20.437Z,95557.13
2022-10-02T19:56:48.940Z,95561.66
2022-10-02T19:59:20.423Z,95550.59
2022-10-02T20:01:52.587Z,95564.59
2022-10-02T20:04:22.840Z,95566.91
2022-10-02T20:06:54.904Z,95572.06
2022-10-02T20:09:29.455Z,95577.00
2022-10-02T20:12:01.605Z,95582.94
2022-10-02T20:14:33.953Z,95588.63
2022-10-02T20:17:10.075Z,95596.06
2022-10-02T20:19:43.877Z,95602.56
2022-10-02T20:22:25.241Z,95593.09
2022-10-02T20:24:59.597Z,95580.66
2022-10-02T20:27:37.561Z,95584.00
2022-10-02T20:30:11.880Z,95571.19
2022-10-02T20:32:44.165Z,95575.47
2022-10-02T20:35:17.230Z,95579.19
2022-10-02T20:37:49.784Z,95588.13
2022-10-02T20:40:21.710Z,95586.00
2022-10-02T20:42:58.237Z,95596.50
2022-10-02T20:45:34.157Z,95603.41
2022-10-02T20:48:55.551Z,95611.63
2022-10-02T20:51:45.088Z,95603.84
2022-10-02T20:54:38.156Z,95608.22
2022-10-02T20:58:01.240Z,95624.69
2022-10-02T21:00:41.798Z,95617.59
2022-10-02T21:03:46.354Z,95610.66
2022-10-02T21:06:47.362Z,95608.97
2022-10-02T21:09:56.828Z,95603.59
2022-10-02T21:13:00.094Z,95607.75
2022-10-02T21:16:18.679Z,95628.63
2022-10-02T21:19:35.139Z,95619.75
2022-10-02T21:22:43.919Z,95645.72
2022-10-02T21:25:41.937Z,95641.88
2022-10-02T21:28:44.877Z,95646.28
2022-10-02T21:31:38.460Z,95649.94
2022-10-02T21:34:19.635Z,95641.66
2022-10-02T21:36:52.898Z,95646.72
2022-10-02T21:40:14.491Z,95651.41
2022-10-02T21:43:17.398Z,95661.84
2022-10-02T21:46:37.500Z,95672.00
2022-10-02T21:49:48.837Z,95672.63
2022-10-02T21:52:53.868Z,95662.72
2022-10-02T21:55:53.777Z,95675.59
2022-10-02T21:59:15.415Z,95675.41
2022-10-02T22:02:11.950Z,95671.69
2022-10-02T22:05:13.525Z,95670.34
2022-10-02T22:07:48.757Z,95679.81
2022-10-02T22:10:25.535Z,95683.44
2022-10-02T22:13:08.613Z,95695.56
2022-10-02T22:15:46.009Z,95683.34
2022-10-02T22:18:25.154Z,95680.44
2022-10-02T22:21:10.658Z,95692.72
2022-10-02T22:23:58.458Z,95692.97
2022-10-02T22:26:44.382Z,95693.31
2022-10-02T22:29:17.203Z,95684.88
2022-10-02T22:32:29.339Z,95696.53
2022-10-02T22:35:09.570Z,95705.41
2022-10-02T22:37:59.814Z,95719.72
2022-10-02T22:40:31.374Z,95705.22
2022-10-02T22:43:05.202Z,95715.06
2022-10-02T22:45:40.045Z,95707.97
2022-10-02T22:48:13.641Z,95708.75
2022-10-02T22:50:49.025Z,95711.56
2022-10-02T22:53:21.836Z,95714.34
2022-10-02T22:55:54.679Z,95720.75
2022-10-02T22:58:30.352Z,95730.75
2022-10-02T23:01:06.816Z,95734.50
2022-10-02T23:03:41.912Z,95732.69
2022-10-02T23:06:21.168Z,95723.69
2022-10-02T23:08:56.584Z,95734.63
2022-10-02T23:11:29.291Z,95739.88
2022-10-02T23:14:01.518Z,95734.41
2022-10-02T23:16:36.127Z,95742.28
2022-10-02T23:19:13.305Z,95746.72
2022-10-02T23:21:48.672Z,95753.78
2022-10-02T23:24:25.656Z,95747.16
2022-10-02T23:26:57.923Z,95745.94
2022-10-02T23:29:36.463Z,95744.97
2022-10-02T23:32:14.979Z,95742.28
2022-10-02T23:34:50.637Z,95746.38
2022-10-02T23:37:24.997Z,95745.03
2022-10-02T23:39:58.333Z,95756.97
2022-10-02T23:42:34.562Z,95753.81
2022-10-02T23:45:10.181Z,95767.84
2022-10-02T23:47:54.786Z,95759.53
2022-10-02T23:50:29.923Z,95761.91
2022-10-02T23:53:19.705Z,95767.22
2022-10-02T23:56:03.589Z,95770.44
2022-10-02T23:58:54.661Z,95776.09
